sensor_id;sensor_type;location;lat;lon;timestamp;pressure;altitude;pressure_sealevel;temperature;humidity
73422;BME280;61637;47.760;-122.022;2023-12-04T00:00:00;101591.7;;;8.2;98.0
73422;BME280;61637;47.760;-122.022;2023-12-04T00:02:00;101591.7;;;8.2;98.0
73422;BME280;61637;47.760;-122.022;2023-12-04T00:04:01;101591.7;;;8.1;98.0
73422;BME280;61637;47.760;-122.022;2023-12-04T00:06:00;101591.7;;;8.1;98.0
73422;BME280;61637;47.760;-122.022;2023-12-04T00:08:00;101591.7;;;8.2;98.0
73422;BME280;61637;47.760;-122.022;2023-12-04T00:10:00;101591.7;;;8.1;98.0
73422;BME280;61637;47.760;-122.022;2023-12-04T00:12:00;101591.7;;;8.0;98.0
73422;BME280;61637;47.760;-122.022;2023-12-04T00:14:00;101591.7;;;7.9;98.0
73422;BME280;61637;47.760;-122.022;2023-12-04T00:16:00;101591.7;;;7.9;98.0
73422;BME280;61637;47.760;-122.022;2023-12-04T00:18:00;101591.7;;;7.9;98.0
73422;BME280;61637;47.760;-122.022;2023-12-04T00:20:00;101591.7;;;7.9;98.0
73422;BME280;61637;47.760;-122.022;2023-12-04T00:22:00;101591.7;;;7.9;98.0
73422;BME280;61637;47.760;-122.022;2023-12-04T00:24:00;101591.7;;;7.9;98.0
73422;BME280;61637;47.760;-122.022;2023-12-04T00:26:00;101591.7;;;7.9;98.0
73422;BME280;61637;47.760;-122.022;2023-12-04T00:28:00;101591.7;;;7.8;98.0
73422;BME280;61637;47.760;-122.022;2023-12-04T00:30:00;101591.7;;;7.8;98.0
73422;BME280;61637;47.760;-122.022;2023-12-04T00:32:00;101591.7;;;7.8;98.0
73422;BME280;61637;47.760;-122.022;2023-12-04T00:34:00;101591.7;;;7.7;98.0
73422;BME280;61637;47.760;-122.022;2023-12-04T00:36:00;101591.7;;;7.7;98.0
73422;BME280;61637;47.760;-122.022;2023-12-04T00:38:01;101591.7;;;7.7;98.0
73422;BME280;61637;47.760;-122.022;2023-12-04T00:40:00;101591.7;;;7.7;98.0
73422;BME280;61637;47.760;-122.022;2023-12-04T00:42:01;101591.7;;;7.7;98.0
73422;BME280;61637;47.760;-122.022;2023-12-04T00:44:00;101591.7;;;7.7;98.0
73422;BME280;61637;47.760;-122.022;2023-12-04T00:46:00;101591.7;;;7.7;98.0
73422;BME280;61637;47.760;-122.022;2023-12-04T00:48:00;101591.7;;;7.6;98.0
73422;BME280;61637;47.760;-122.022;2023-12-04T00:50:00;101591.7;;;7.6;98.0
73422;BME280;61637;47.760;-122.022;2023-12-04T00:52:00;101591.7;;;7.5;98.0
73422;BME280;61637;47.760;-122.022;2023-12-04T00:54:00;101591.7;;;7.5;98.0
73422;BME280;61637;47.760;-122.022;2023-12-04T00:56:00;101591.7;;;7.5;98.0
73422;BME280;61637;47.760;-122.022;2023-12-04T00:58:00;101591.7;;;7.4;98.0
73422;BME280;61637;47.760;-122.022;2023-12-04T01:00:00;101591.7;;;7.4;98.0
73422;BME280;61637;47.760;-122.022;2023-12-04T01:02:00;101591.7;;;7.4;98.0
73422;BME280;61637;47.760;-122.022;2023-12-04T01:04:00;101591.7;;;7.4;98.0
73422;BME280;61637;47.760;-122.022;2023-12-04T01:06:00;101591.7;;;7.4;98.0
73422;BME280;61637;47.760;-122.022;2023-12-04T01:08:00;101591.7;;;7.4;98.0
73422;BME280;61637;47.760;-122.022;2023-12-04T01:10:00;101591.7;;;7.4;98.0
73422;BME280;61637;47.760;-122.022;2023-12-04T01:12:00;101591.7;;;7.3;98.0
73422;BME280;61637;47.760;-122.022;2023-12-04T01:14:00;101591.7;;;7.4;98.0
73422;BME280;61637;47.760;-122.022;2023-12-04T01:16:00;101591.7;;;7.4;98.0
73422;BME280;61637;47.760;-122.022;2023-12-04T01:18:00;101591.7;;;7.3;98.0
73422;BME280;61637;47.760;-122.022;2023-12-04T01:20:00;101591.7;;;7.3;98.0
73422;BME280;61637;47.760;-122.022;2023-12-04T01:22:00;101591.7;;;7.3;98.0
73422;BME280;61637;47.760;-122.022;2023-12-04T01:24:00;101591.7;;;7.3;98.0
73422;BME280;61637;47.760;-122.022;2023-12-04T01:26:01;101591.7;;;7.3;98.0
73422;BME280;61637;47.760;-122.022;2023-12-04T01:28:00;101591.7;;;7.3;98.0
73422;BME280;61637;47.760;-122.022;2023-12-04T01:30:01;101591.7;;;7.3;98.0
73422;BME280;61637;47.760;-122.022;2023-12-04T01:32:00;101591.7;;;7.3;98.0
73422;BME280;61637;47.760;-122.022;2023-12-04T01:34:00;101591.7;;;7.2;98.0
73422;BME280;61637;47.760;-122.022;2023-12-04T01:36:01;101591.7;;;7.2;98.0
73422;BME280;61637;47.760;-122.022;2023-12-04T01:38:00;101591.7;;;7.2;98.0
73422;BME280;61637;47.760;-122.022;2023-12-04T01:40:00;101591.7;;;7.2;98.0
73422;BME280;61637;47.760;-122.022;2023-12-04T01:42:00;101591.7;;;7.2;98.0
73422;BME280;61637;47.760;-122.022;2023-12-04T01:44:00;101591.7;;;7.2;98.0
73422;BME280;61637;47.760;-122.022;2023-12-04T01:46:00;101591.7;;;7.2;98.0
73422;BME280;61637;47.760;-122.022;2023-12-04T01:48:00;101591.7;;;7.2;98.0
73422;BME280;61637;47.760;-122.022;2023-12-04T01:50:00;101591.7;;;7.2;98.0
73422;BME280;61637;47.760;-122.022;2023-12-04T01:52:00;101591.7;;;7.2;98.0
73422;BME280;61637;47.760;-122.022;2023-12-04T01:54:00;101591.7;;;7.2;98.0
73422;BME280;61637;47.760;-122.022;2023-12-04T01:56:00;101591.7;;;7.2;98.0
73422;BME280;61637;47.760;-122.022;2023-12-04T01:58:00;101591.7;;;7.2;98.0
73422;BME280;61637;47.760;-122.022;2023-12-04T02:00:00;101591.7;;;7.2;98.0
73422;BME280;61637;47.760;-122.022;2023-12-04T02:02:00;101591.7;;;7.2;98.0
73422;BME280;61637;47.760;-122.022;2023-12-04T02:04:00;101591.7;;;7.2;98.0
73422;BME280;61637;47.760;-122.022;2023-12-04T02:06:01;101591.7;;;7.1;98.0
73422;BME280;61637;47.760;-122.022;2023-12-04T02:08:00;101591.7;;;7.2;98.0
73422;BME280;61637;47.760;-122.022;2023-12-04T02:10:00;101591.7;;;7.2;98.0
73422;BME280;61637;47.760;-122.022;2023-12-04T02:12:00;101591.7;;;7.1;98.0
73422;BME280;61637;47.760;-122.022;2023-12-04T02:14:00;101591.7;;;7.1;98.0
73422;BME280;61637;47.760;-122.022;2023-12-04T02:16:01;101591.7;;;7.1;98.0
73422;BME280;61637;47.760;-122.022;2023-12-04T02:18:01;101591.7;;;7.1;98.0
73422;BME280;61637;47.760;-122.022;2023-12-04T02:20:00;101591.7;;;7.1;98.0
73422;BME280;61637;47.760;-122.022;2023-12-04T02:22:00;101591.7;;;7.1;98.0
73422;BME280;61637;47.760;-122.022;2023-12-04T02:24:00;101591.7;;;7.1;98.0
73422;BME280;61637;47.760;-122.022;2023-12-04T02:26:03;101591.7;;;7.1;98.0
73422;BME280;61637;47.760;-122.022;2023-12-04T02:28:01;101591.7;;;7.1;98.0
73422;BME280;61637;47.760;-122.022;2023-12-04T02:30:01;101591.7;;;7.1;98.0
73422;BME280;61637;47.760;-122.022;2023-12-04T02:32:01;101591.7;;;7.1;98.0
73422;BME280;61637;47.760;-122.022;2023-12-04T02:34:00;101591.7;;;7.1;98.0
73422;BME280;61637;47.760;-122.022;2023-12-04T02:36:01;101591.7;;;7.1;98.0
73422;BME280;61637;47.760;-122.022;2023-12-04T02:38:00;101591.7;;;7.1;98.0
73422;BME280;61637;47.760;-122.022;2023-12-04T02:40:00;101591.7;;;7.1;98.0
73422;BME280;61637;47.760;-122.022;2023-12-04T02:42:00;101591.7;;;7.1;98.0
73422;BME280;61637;47.760;-122.022;2023-12-04T02:44:00;101591.7;;;7.1;98.0
73422;BME280;61637;47.760;-122.022;2023-12-04T02:46:00;101591.7;;;7.1;98.0
73422;BME280;61637;47.760;-122.022;2023-12-04T02:48:00;101591.7;;;7.1;98.0
73422;BME280;61637;47.760;-122.022;2023-12-04T02:50:00;101591.7;;;7.0;98.0
73422;BME280;61637;47.760;-122.022;2023-12-04T02:52:00;101591.7;;;7.0;98.0
73422;BME280;61637;47.760;-122.022;2023-12-04T02:54:01;101591.7;;;7.0;98.0
73422;BME280;61637;47.760;-122.022;2023-12-04T02:56:00;101591.7;;;7.0;98.0
73422;BME280;61637;47.760;-122.022;2023-12-04T02:58:00;101591.7;;;7.0;98.0
73422;BME280;61637;47.760;-122.022;2023-12-04T03:00:00;101591.7;;;7.0;98.0
73422;BME280;61637;47.760;-122.022;2023-12-04T03:02:00;101591.7;;;6.9;98.0
73422;BME280;61637;47.760;-122.022;2023-12-04T03:04:00;101591.7;;;6.9;98.0
73422;BME280;61637;47.760;-122.022;2023-12-04T03:06:00;101591.7;;;6.9;98.0
73422;BME280;61637;47.760;-122.022;2023-12-04T03:08:00;101591.7;;;6.9;98.0
73422;BME280;61637;47.760;-122.022;2023-12-04T03:10:00;101591.7;;;6.8;98.0
73422;BME280;61637;47.760;-122.022;2023-12-04T03:12:00;101591.7;;;6.8;98.0
73422;BME280;61637;47.760;-122.022;2023-12-04T03:14:00;101591.7;;;6.9;98.0
73422;BME280;61637;47.760;-122.022;2023-12-04T03:16:00;101591.7;;;6.9;98.0
73422;BME280;61637;47.760;-122.022;2023-12-04T03:18:00;101930.339;;;6.9;98.0
73422;BME280;61637;47.760;-122.022;2023-12-04T03:20:00;101930.339;;;6.9;98.0
73422;BME280;61637;47.760;-122.022;2023-12-04T03:22:01;101930.339;;;6.9;98.0
73422;BME280;61637;47.760;-122.022;2023-12-04T03:24:00;101930.339;;;6.9;98.0
73422;BME280;61637;47.760;-122.022;2023-12-04T03:26:00;101930.339;;;7.0;98.0
73422;BME280;61637;47.760;-122.022;2023-12-04T03:28:00;101930.339;;;7.0;98.0
73422;BME280;61637;47.760;-122.022;2023-12-04T03:30:00;101930.339;;;7.1;98.0
73422;BME280;61637;47.760;-122.022;2023-12-04T03:32:00;101930.339;;;7.1;98.0
73422;BME280;61637;47.760;-122.022;2023-12-04T03:34:00;101930.339;;;7.1;98.0
73422;BME280;61637;47.760;-122.022;2023-12-04T03:36:00;101930.339;;;7.1;99.0
73422;BME280;61637;47.760;-122.022;2023-12-04T03:38:00;101930.339;;;7.1;98.0
73422;BME280;61637;47.760;-122.022;2023-12-04T03:40:00;101930.339;;;7.1;98.0
73422;BME280;61637;47.760;-122.022;2023-12-04T03:42:00;101930.339;;;7.2;99.0
73422;BME280;61637;47.760;-122.022;2023-12-04T03:44:00;101930.339;;;7.2;99.0
73422;BME280;61637;47.760;-122.022;2023-12-04T03:46:00;101930.339;;;7.2;99.0
73422;BME280;61637;47.760;-122.022;2023-12-04T03:48:00;101930.339;;;7.2;99.0
73422;BME280;61637;47.760;-122.022;2023-12-04T03:50:00;101930.339;;;7.2;99.0
73422;BME280;61637;47.760;-122.022;2023-12-04T03:52:00;101930.339;;;7.2;99.0
73422;BME280;61637;47.760;-122.022;2023-12-04T03:54:01;101930.339;;;7.3;98.0
73422;BME280;61637;47.760;-122.022;2023-12-04T03:56:00;101930.339;;;7.3;99.0
73422;BME280;61637;47.760;-122.022;2023-12-04T03:58:00;101930.339;;;7.3;99.0
73422;BME280;61637;47.760;-122.022;2023-12-04T04:00:00;101930.339;;;7.3;99.0
73422;BME280;61637;47.760;-122.022;2023-12-04T04:02:00;101930.339;;;7.3;98.0
73422;BME280;61637;47.760;-122.022;2023-12-04T04:04:00;101930.339;;;7.3;98.0
73422;BME280;61637;47.760;-122.022;2023-12-04T04:06:01;101930.339;;;7.3;98.0
73422;BME280;61637;47.760;-122.022;2023-12-04T04:08:00;101930.339;;;7.3;98.0
73422;BME280;61637;47.760;-122.022;2023-12-04T04:10:00;101930.339;;;7.3;98.0
73422;BME280;61637;47.760;-122.022;2023-12-04T04:12:00;101930.339;;;7.3;98.0
73422;BME280;61637;47.760;-122.022;2023-12-04T04:14:00;101930.339;;;7.3;98.0
73422;BME280;61637;47.760;-122.022;2023-12-04T04:16:00;101930.339;;;7.2;98.0
73422;BME280;61637;47.760;-122.022;2023-12-04T04:18:01;101930.339;;;7.3;98.0
73422;BME280;61637;47.760;-122.022;2023-12-04T04:20:00;101591.7;;;7.2;98.0
73422;BME280;61637;47.760;-122.022;2023-12-04T04:22:00;101591.7;;;7.2;98.0
73422;BME280;61637;47.760;-122.022;2023-12-04T04:24:00;101591.7;;;7.2;98.0
73422;BME280;61637;47.760;-122.022;2023-12-04T04:26:00;101591.7;;;7.2;98.0
73422;BME280;61637;47.760;-122.022;2023-12-04T04:28:00;101591.7;;;7.1;98.0
73422;BME280;61637;47.760;-122.022;2023-12-04T04:30:01;101591.7;;;7.1;98.0
73422;BME280;61637;47.760;-122.022;2023-12-04T04:32:00;101591.7;;;7.1;98.0
73422;BME280;61637;47.760;-122.022;2023-12-04T04:34:00;101930.339;;;7.1;98.0
73422;BME280;61637;47.760;-122.022;2023-12-04T04:36:00;101930.339;;;7.1;98.0
73422;BME280;61637;47.760;-122.022;2023-12-04T04:38:00;101930.339;;;7.1;98.0
73422;BME280;61637;47.760;-122.022;2023-12-04T04:40:00;101930.339;;;7.1;98.0
73422;BME280;61637;47.760;-122.022;2023-12-04T04:42:00;101930.339;;;7.1;98.0
73422;BME280;61637;47.760;-122.022;2023-12-04T04:44:00;101930.339;;;7.1;98.0
73422;BME280;61637;47.760;-122.022;2023-12-04T04:46:00;101930.339;;;7.1;98.0
73422;BME280;61637;47.760;-122.022;2023-12-04T04:48:00;101930.339;;;7.1;98.0
73422;BME280;61637;47.760;-122.022;2023-12-04T04:50:00;101930.339;;;7.2;98.0
73422;BME280;61637;47.760;-122.022;2023-12-04T04:52:00;101930.339;;;7.2;98.0
73422;BME280;61637;47.760;-122.022;2023-12-04T04:54:00;101930.339;;;7.2;98.0
73422;BME280;61637;47.760;-122.022;2023-12-04T04:56:00;101930.339;;;7.1;98.0
73422;BME280;61637;47.760;-122.022;2023-12-04T04:58:00;101930.339;;;7.2;98.0
73422;BME280;61637;47.760;-122.022;2023-12-04T05:00:00;101591.7;;;7.1;98.0
73422;BME280;61637;47.760;-122.022;2023-12-04T05:02:00;101591.7;;;7.1;98.0
73422;BME280;61637;47.760;-122.022;2023-12-04T05:04:00;101591.7;;;7.1;98.0
73422;BME280;61637;47.760;-122.022;2023-12-04T05:06:00;101591.7;;;7.1;98.0
73422;BME280;61637;47.760;-122.022;2023-12-04T05:08:00;101591.7;;;7.1;98.0
73422;BME280;61637;47.760;-122.022;2023-12-04T05:10:00;101591.7;;;7.1;98.0
73422;BME280;61637;47.760;-122.022;2023-12-04T05:12:00;101591.7;;;7.1;98.0
73422;BME280;61637;47.760;-122.022;2023-12-04T05:14:00;101591.7;;;7.0;98.0
73422;BME280;61637;47.760;-122.022;2023-12-04T05:16:00;101591.7;;;7.0;98.0
73422;BME280;61637;47.760;-122.022;2023-12-04T05:18:01;101591.7;;;6.9;98.0
73422;BME280;61637;47.760;-122.022;2023-12-04T05:20:00;101591.7;;;6.9;98.0
73422;BME280;61637;47.760;-122.022;2023-12-04T05:22:00;101591.7;;;6.9;98.0
73422;BME280;61637;47.760;-122.022;2023-12-04T05:24:00;101591.7;;;6.9;98.0
73422;BME280;61637;47.760;-122.022;2023-12-04T05:26:00;101591.7;;;6.9;98.0
73422;BME280;61637;47.760;-122.022;2023-12-04T05:28:00;101591.7;;;6.9;98.0
73422;BME280;61637;47.760;-122.022;2023-12-04T05:30:00;101591.7;;;6.9;98.0
73422;BME280;61637;47.760;-122.022;2023-12-04T05:32:00;101591.7;;;6.9;98.0
73422;BME280;61637;47.760;-122.022;2023-12-04T05:34:00;101591.7;;;6.8;98.0
73422;BME280;61637;47.760;-122.022;2023-12-04T05:36:00;101591.7;;;6.8;98.0
73422;BME280;61637;47.760;-122.022;2023-12-04T05:38:00;101591.7;;;6.7;98.0
73422;BME280;61637;47.760;-122.022;2023-12-04T05:40:00;101591.7;;;6.6;98.0
73422;BME280;61637;47.760;-122.022;2023-12-04T05:42:01;101591.7;;;6.6;98.0
73422;BME280;61637;47.760;-122.022;2023-12-04T05:44:00;101591.7;;;6.6;98.0
73422;BME280;61637;47.760;-122.022;2023-12-04T05:46:00;101591.7;;;6.5;98.0
73422;BME280;61637;47.760;-122.022;2023-12-04T05:48:00;101591.7;;;6.4;98.0
73422;BME280;61637;47.760;-122.022;2023-12-04T05:50:00;101591.7;;;6.4;98.0
73422;BME280;61637;47.760;-122.022;2023-12-04T05:52:00;101591.7;;;6.4;98.0
73422;BME280;61637;47.760;-122.022;2023-12-04T05:54:00;101591.7;;;6.3;98.0
73422;BME280;61637;47.760;-122.022;2023-12-04T05:56:00;101591.7;;;6.3;98.0
73422;BME280;61637;47.760;-122.022;2023-12-04T05:58:00;101591.7;;;6.3;98.0
73422;BME280;61637;47.760;-122.022;2023-12-04T06:00:00;101591.7;;;6.3;98.0
73422;BME280;61637;47.760;-122.022;2023-12-04T06:02:01;101591.7;;;6.2;98.0
73422;BME280;61637;47.760;-122.022;2023-12-04T06:04:00;101591.7;;;6.2;98.0
73422;BME280;61637;47.760;-122.022;2023-12-04T06:06:00;101591.7;;;6.2;98.0
73422;BME280;61637;47.760;-122.022;2023-12-04T06:08:00;101591.7;;;6.2;98.0
73422;BME280;61637;47.760;-122.022;2023-12-04T06:10:00;101591.7;;;6.1;98.0
73422;BME280;61637;47.760;-122.022;2023-12-04T06:12:00;101591.7;;;6.1;98.0
73422;BME280;61637;47.760;-122.022;2023-12-04T06:14:00;101591.7;;;6.1;98.0
73422;BME280;61637;47.760;-122.022;2023-12-04T06:16:01;101591.7;;;6.1;98.0
73422;BME280;61637;47.760;-122.022;2023-12-04T06:18:00;101591.7;;;6.0;98.0
73422;BME280;61637;47.760;-122.022;2023-12-04T06:20:00;101591.7;;;5.9;98.0
73422;BME280;61637;47.760;-122.022;2023-12-04T06:22:00;101591.7;;;5.9;98.0
73422;BME280;61637;47.760;-122.022;2023-12-04T06:24:00;101591.7;;;5.8;98.0
73422;BME280;61637;47.760;-122.022;2023-12-04T06:26:00;101591.7;;;5.8;98.0
73422;BME280;61637;47.760;-122.022;2023-12-04T06:28:01;101591.7;;;5.8;98.0
73422;BME280;61637;47.760;-122.022;2023-12-04T06:30:01;101591.7;;;5.8;98.0
73422;BME280;61637;47.760;-122.022;2023-12-04T06:32:01;101591.7;;;5.8;98.0
73422;BME280;61637;47.760;-122.022;2023-12-04T06:34:00;101591.7;;;5.8;98.0
73422;BME280;61637;47.760;-122.022;2023-12-04T06:36:01;101591.7;;;5.7;98.0
73422;BME280;61637;47.760;-122.022;2023-12-04T06:38:01;101591.7;;;5.8;98.0
73422;BME280;61637;47.760;-122.022;2023-12-04T06:40:00;101591.7;;;5.7;98.0
73422;BME280;61637;47.760;-122.022;2023-12-04T06:42:01;101591.7;;;5.7;98.0
73422;BME280;61637;47.760;-122.022;2023-12-04T06:44:00;101591.7;;;5.7;98.0
73422;BME280;61637;47.760;-122.022;2023-12-04T06:46:00;101930.339;;;5.7;98.0
73422;BME280;61637;47.760;-122.022;2023-12-04T06:48:00;101930.339;;;5.7;98.0
73422;BME280;61637;47.760;-122.022;2023-12-04T06:50:00;101930.339;;;5.6;98.0
73422;BME280;61637;47.760;-122.022;2023-12-04T06:52:00;101930.339;;;5.6;98.0
73422;BME280;61637;47.760;-122.022;2023-12-04T06:54:00;101930.339;;;5.6;98.0
73422;BME280;61637;47.760;-122.022;2023-12-04T06:56:00;101930.339;;;5.6;98.0
73422;BME280;61637;47.760;-122.022;2023-12-04T06:58:00;101930.339;;;5.6;98.0
73422;BME280;61637;47.760;-122.022;2023-12-04T07:00:00;101930.339;;;5.6;98.0
73422;BME280;61637;47.760;-122.022;2023-12-04T07:02:00;101930.339;;;5.6;98.0
73422;BME280;61637;47.760;-122.022;2023-12-04T07:04:00;101930.339;;;5.6;98.0
73422;BME280;61637;47.760;-122.022;2023-12-04T07:06:01;101930.339;;;5.6;98.0
73422;BME280;61637;47.760;-122.022;2023-12-04T07:08:00;101930.339;;;5.6;98.0
73422;BME280;61637;47.760;-122.022;2023-12-04T07:10:00;101930.339;;;5.6;98.0
73422;BME280;61637;47.760;-122.022;2023-12-04T07:12:00;101930.339;;;5.6;98.0
73422;BME280;61637;47.760;-122.022;2023-12-04T07:14:00;101930.339;;;5.5;98.0
73422;BME280;61637;47.760;-122.022;2023-12-04T07:16:00;101930.339;;;5.5;98.0
73422;BME280;61637;47.760;-122.022;2023-12-04T07:18:00;101930.339;;;5.5;98.0
73422;BME280;61637;47.760;-122.022;2023-12-04T07:20:00;101930.339;;;5.4;98.0
73422;BME280;61637;47.760;-122.022;2023-12-04T07:22:00;101930.339;;;5.4;98.0
73422;BME280;61637;47.760;-122.022;2023-12-04T07:24:00;101930.339;;;5.4;98.0
73422;BME280;61637;47.760;-122.022;2023-12-04T07:26:00;101930.339;;;5.3;98.0
73422;BME280;61637;47.760;-122.022;2023-12-04T07:28:00;101930.339;;;5.3;98.0
73422;BME280;61637;47.760;-122.022;2023-12-04T07:30:01;101930.339;;;5.3;98.0
73422;BME280;61637;47.760;-122.022;2023-12-04T07:32:00;101930.339;;;5.3;98.0
73422;BME280;61637;47.760;-122.022;2023-12-04T07:34:00;101930.339;;;5.3;98.0
73422;BME280;61637;47.760;-122.022;2023-12-04T07:36:00;101930.339;;;5.2;98.0
73422;BME280;61637;47.760;-122.022;2023-12-04T07:38:00;101930.339;;;5.2;98.0
73422;BME280;61637;47.760;-122.022;2023-12-04T07:40:00;101930.339;;;5.2;98.0
73422;BME280;61637;47.760;-122.022;2023-12-04T07:42:01;101930.339;;;5.2;98.0
73422;BME280;61637;47.760;-122.022;2023-12-04T07:44:01;101930.339;;;5.3;98.0
73422;BME280;61637;47.760;-122.022;2023-12-04T07:46:00;101930.339;;;5.2;98.0
73422;BME280;61637;47.760;-122.022;2023-12-04T07:48:00;101930.339;;;5.2;98.0
73422;BME280;61637;47.760;-122.022;2023-12-04T07:50:00;101930.339;;;5.2;98.0
73422;BME280;61637;47.760;-122.022;2023-12-04T07:52:00;101930.339;;;5.2;98.0
73422;BME280;61637;47.760;-122.022;2023-12-04T07:54:00;101930.339;;;5.3;98.0
73422;BME280;61637;47.760;-122.022;2023-12-04T07:56:01;101930.339;;;5.3;98.0
73422;BME280;61637;47.760;-122.022;2023-12-04T07:58:00;101930.339;;;5.3;98.0
73422;BME280;61637;47.760;-122.022;2023-12-04T08:00:00;101930.339;;;5.3;98.0
73422;BME280;61637;47.760;-122.022;2023-12-04T08:02:00;101930.339;;;5.3;98.0
73422;BME280;61637;47.760;-122.022;2023-12-04T08:04:00;101930.339;;;5.3;98.0
73422;BME280;61637;47.760;-122.022;2023-12-04T08:06:00;101930.339;;;5.3;98.0
73422;BME280;61637;47.760;-122.022;2023-12-04T08:08:00;101930.339;;;5.3;98.0
73422;BME280;61637;47.760;-122.022;2023-12-04T08:10:00;101930.339;;;5.3;98.0
73422;BME280;61637;47.760;-122.022;2023-12-04T08:12:00;101930.339;;;5.3;98.0
73422;BME280;61637;47.760;-122.022;2023-12-04T08:14:00;101930.339;;;5.4;98.0
73422;BME280;61637;47.760;-122.022;2023-12-04T08:16:00;101930.339;;;5.3;98.0
73422;BME280;61637;47.760;-122.022;2023-12-04T08:18:00;101930.339;;;5.3;98.0
73422;BME280;61637;47.760;-122.022;2023-12-04T08:20:00;101930.339;;;5.3;98.0
73422;BME280;61637;47.760;-122.022;2023-12-04T08:22:00;101930.339;;;5.3;98.0
73422;BME280;61637;47.760;-122.022;2023-12-04T08:24:00;101930.339;;;5.4;98.0
73422;BME280;61637;47.760;-122.022;2023-12-04T08:26:00;101930.339;;;5.3;98.0
73422;BME280;61637;47.760;-122.022;2023-12-04T08:28:00;101930.339;;;5.4;98.0
73422;BME280;61637;47.760;-122.022;2023-12-04T08:30:00;101930.339;;;5.4;98.0
73422;BME280;61637;47.760;-122.022;2023-12-04T08:32:00;101930.339;;;5.4;98.0
73422;BME280;61637;47.760;-122.022;2023-12-04T08:34:00;101930.339;;;5.4;98.0
73422;BME280;61637;47.760;-122.022;2023-12-04T08:36:00;101930.339;;;5.3;98.0
73422;BME280;61637;47.760;-122.022;2023-12-04T08:38:00;101930.339;;;5.3;98.0
73422;BME280;61637;47.760;-122.022;2023-12-04T08:40:00;101930.339;;;5.3;98.0
73422;BME280;61637;47.760;-122.022;2023-12-04T08:42:01;101930.339;;;5.2;98.0
73422;BME280;61637;47.760;-122.022;2023-12-04T08:44:00;101930.339;;;5.2;98.0
73422;BME280;61637;47.760;-122.022;2023-12-04T08:46:00;101930.339;;;5.2;98.0
73422;BME280;61637;47.760;-122.022;2023-12-04T08:48:00;101930.339;;;5.2;98.0
73422;BME280;61637;47.760;-122.022;2023-12-04T08:50:00;101930.339;;;5.2;98.0
73422;BME280;61637;47.760;-122.022;2023-12-04T08:52:00;101930.339;;;5.2;98.0
73422;BME280;61637;47.760;-122.022;2023-12-04T08:54:00;101930.339;;;5.2;98.0
73422;BME280;61637;47.760;-122.022;2023-12-04T08:56:01;101930.339;;;5.2;98.0
73422;BME280;61637;47.760;-122.022;2023-12-04T08:58:00;101930.339;;;5.2;98.0
73422;BME280;61637;47.760;-122.022;2023-12-04T09:00:00;101930.339;;;5.2;98.0
73422;BME280;61637;47.760;-122.022;2023-12-04T09:02:00;101930.339;;;5.2;98.0
73422;BME280;61637;47.760;-122.022;2023-12-04T09:04:00;101930.339;;;5.2;98.0
73422;BME280;61637;47.760;-122.022;2023-12-04T09:06:00;101930.339;;;5.2;98.0
73422;BME280;61637;47.760;-122.022;2023-12-04T09:08:00;101930.339;;;5.2;98.0
73422;BME280;61637;47.760;-122.022;2023-12-04T09:10:00;101930.339;;;5.2;98.0
73422;BME280;61637;47.760;-122.022;2023-12-04T09:12:00;101930.339;;;5.2;98.0
73422;BME280;61637;47.760;-122.022;2023-12-04T09:14:00;101930.339;;;5.2;98.0
73422;BME280;61637;47.760;-122.022;2023-12-04T09:16:00;101930.339;;;5.3;98.0
73422;BME280;61637;47.760;-122.022;2023-12-04T09:18:00;101930.339;;;5.2;98.0
73422;BME280;61637;47.760;-122.022;2023-12-04T09:20:00;101930.339;;;5.2;98.0
73422;BME280;61637;47.760;-122.022;2023-12-04T09:22:00;101930.339;;;5.2;98.0
73422;BME280;61637;47.760;-122.022;2023-12-04T09:24:00;101930.339;;;5.2;98.0
73422;BME280;61637;47.760;-122.022;2023-12-04T09:26:00;101930.339;;;5.2;98.0
73422;BME280;61637;47.760;-122.022;2023-12-04T09:28:00;101930.339;;;5.2;98.0
73422;BME280;61637;47.760;-122.022;2023-12-04T09:30:01;101930.339;;;5.1;98.0
73422;BME280;61637;47.760;-122.022;2023-12-04T09:32:00;101930.339;;;5.1;98.0
73422;BME280;61637;47.760;-122.022;2023-12-04T09:34:00;101930.339;;;5.1;98.0
73422;BME280;61637;47.760;-122.022;2023-12-04T09:36:00;101930.339;;;5.0;98.0
73422;BME280;61637;47.760;-122.022;2023-12-04T09:38:00;101930.339;;;5.0;98.0
73422;BME280;61637;47.760;-122.022;2023-12-04T09:40:00;101930.339;;;4.9;98.0
73422;BME280;61637;47.760;-122.022;2023-12-04T09:42:00;101930.339;;;4.9;98.0
73422;BME280;61637;47.760;-122.022;2023-12-04T09:44:00;101930.339;;;4.9;98.0
73422;BME280;61637;47.760;-122.022;2023-12-04T09:46:00;101930.339;;;4.8;98.0
73422;BME280;61637;47.760;-122.022;2023-12-04T09:48:00;101930.339;;;4.8;98.0
73422;BME280;61637;47.760;-122.022;2023-12-04T09:50:00;101930.339;;;4.8;98.0
73422;BME280;61637;47.760;-122.022;2023-12-04T09:52:00;101930.339;;;4.7;98.0
73422;BME280;61637;47.760;-122.022;2023-12-04T09:54:01;101930.339;;;4.6;98.0
73422;BME280;61637;47.760;-122.022;2023-12-04T09:56:00;101930.339;;;4.6;98.0
73422;BME280;61637;47.760;-122.022;2023-12-04T09:58:00;101930.339;;;4.5;98.0
73422;BME280;61637;47.760;-122.022;2023-12-04T10:00:00;101930.339;;;4.5;98.0
73422;BME280;61637;47.760;-122.022;2023-12-04T10:02:00;101930.339;;;4.4;98.0
73422;BME280;61637;47.760;-122.022;2023-12-04T10:04:00;101930.339;;;4.5;98.0
73422;BME280;61637;47.760;-122.022;2023-12-04T10:06:00;101930.339;;;4.5;98.0
73422;BME280;61637;47.760;-122.022;2023-12-04T10:08:00;101930.339;;;4.5;98.0
73422;BME280;61637;47.760;-122.022;2023-12-04T10:10:00;101930.339;;;4.5;98.0
73422;BME280;61637;47.760;-122.022;2023-12-04T10:12:00;101930.339;;;4.6;98.0
73422;BME280;61637;47.760;-122.022;2023-12-04T10:14:00;101930.339;;;4.6;98.0
73422;BME280;61637;47.760;-122.022;2023-12-04T10:16:00;101930.339;;;4.6;98.0
73422;BME280;61637;47.760;-122.022;2023-12-04T10:18:00;101930.339;;;4.5;98.0
73422;BME280;61637;47.760;-122.022;2023-12-04T10:20:04;101930.339;;;4.4;98.0
73422;BME280;61637;47.760;-122.022;2023-12-04T10:22:00;101930.339;;;4.4;98.0
73422;BME280;61637;47.760;-122.022;2023-12-04T10:24:00;101930.339;;;4.4;98.0
73422;BME280;61637;47.760;-122.022;2023-12-04T10:26:00;101930.339;;;4.4;98.0